createdAt,value
2018-09-20T00:00:10.580Z,79.03
2018-09-20T00:02:39.185Z,78.73
2018-09-20T00:05:07.526Z,78.52
2018-09-20T00:07:36.114Z,79.12
2018-09-20T00:10:05.234Z,78.91
2018-09-20T00:12:33.851Z,79.57
2018-09-20T00:15:02.513Z,79.95
2018-09-20T00:17:31.116Z,81.13
2018-09-20T00:19:59.810Z,81.64
2018-09-20T00:22:28.370Z,83.72
2018-09-20T00:24:56.987Z,85.18
2018-09-20T00:27:25.641Z,85.94
2018-09-20T00:29:54.228Z,85.89
2018-09-20T00:32:22.832Z,86.17
2018-09-20T00:34:51.445Z,86.71
2018-09-20T00:37:20.013Z,86.49
2018-09-20T00:39:48.616Z,86.44
2018-09-20T00:42:17.241Z,86.82
2018-09-20T00:44:45.850Z,87.30
2018-09-20T00:47:14.513Z,87.43
2018-09-20T00:49:43.162Z,87.18
2018-09-20T00:52:11.764Z,87.17
2018-09-20T00:54:40.436Z,86.90
2018-09-20T00:57:09.075Z,87.02
2018-09-20T00:59:37.704Z,87.38
2018-09-20T01:02:06.505Z,86.97
2018-09-20T01:04:35.087Z,87.05
2018-09-20T01:07:04.013Z,87.78
2018-09-20T01:09:32.654Z,88.23
2018-09-20T01:12:01.241Z,88.04
2018-09-20T01:14:29.919Z,88.52
2018-09-20T01:16:58.662Z,88.05
2018-09-20T01:19:27.283Z,88.96
2018-09-20T01:21:56.852Z,88.69
2018-09-20T01:24:25.499Z,89.26
2018-09-20T01:26:54.134Z,89.37
2018-09-20T01:29:22.723Z,90.23
2018-09-20T01:31:51.377Z,90.36
2018-09-20T01:34:20.117Z,90.29
2018-09-20T01:36:48.705Z,89.78
2018-09-20T01:39:17.422Z,90.00
2018-09-20T01:41:46.041Z,89.54
2018-09-20T01:44:14.695Z,89.85
2018-09-20T01:46:43.327Z,89.82
2018-09-20T01:49:11.923Z,90.12
2018-09-20T01:51:40.495Z,90.00
2018-09-20T01:54:09.104Z,90.27
2018-09-20T01:56:37.724Z,90.08
2018-09-20T01:59:06.348Z,90.42
2018-09-20T02:01:34.978Z,90.06
2018-09-20T02:04:03.566Z,90.20
2018-09-20T02:06:32.203Z,89.64
2018-09-20T02:09:00.775Z,89.72
2018-09-20T02:11:29.467Z,89.42
2018-09-20T02:13:59.102Z,90.15
2018-09-20T02:16:27.708Z,90.26
2018-09-20T02:18:56.317Z,90.82
2018-09-20T02:21:24.921Z,90.62
2018-09-20T02:23:53.520Z,90.90
2018-09-20T02:26:22.113Z,91.11
2018-09-20T02:28:50.728Z,91.20
2018-09-20T02:31:19.464Z,91.90
2018-09-20T02:33:48.074Z,92.43
2018-09-20T02:36:16.704Z,92.48
2018-09-20T02:38:45.373Z,92.63
2018-09-20T02:41:13.972Z,92.91
2018-09-20T02:43:42.569Z,93.60
2018-09-20T02:46:11.206Z,93.27
2018-09-20T02:48:39.800Z,93.51
2018-09-20T02:51:08.385Z,93.32
2018-09-20T02:53:37.007Z,93.45
2018-09-20T02:56:05.658Z,93.89
2018-09-20T02:58:34.247Z,93.77
2018-09-20T03:01:02.853Z,93.99
2018-09-20T03:03:31.458Z,94.03
2018-09-20T03:06:00.122Z,94.06
2018-09-20T03:08:29.295Z,94.61
2018-09-20T03:10:57.962Z,94.22
2018-09-20T03:13:26.571Z,94.49
2018-09-20T03:15:55.211Z,95.14
2018-09-20T03:18:23.913Z,94.88
2018-09-20T03:20:52.506Z,94.28
2018-09-20T03:23:21.177Z,94.33
2018-09-20T03:25:49.814Z,94.62
2018-09-20T03:28:18.399Z,94.49
2018-09-20T03:30:47.058Z,94.40
2018-09-20T03:33:15.717Z,94.25
2018-09-20T03:35:44.437Z,93.95
2018-09-20T03:38:13.087Z,93.95
2018-09-20T03:40:41.811Z,93.78
2018-09-20T03:43:10.503Z,93.95
2018-09-20T03:45:39.102Z,93.89
2018-09-20T03:48:08.830Z,93.74
2018-09-20T03:50:37.427Z,94.35
2018-09-20T03:53:06.191Z,94.10
2018-09-20T03:55:34.835Z,93.90
2018-09-20T03:58:03.422Z,94.33
2018-09-20T04:00:32.071Z,94.27
2018-09-20T04:03:00.793Z,94.52
2018-09-20T04:05:29.353Z,94.68
2018-09-20T04:08:03.533Z,95.05
2018-09-20T04:10:32.101Z,94.90
2018-09-20T04:13:00.709Z,94.85
2018-09-20T04:15:29.364Z,94.47
2018-09-20T04:17:57.948Z,94.91
2018-09-20T04:20:26.597Z,94.53
2018-09-20T04:22:55.223Z,94.53
2018-09-20T04:25:23.828Z,95.32
2018-09-20T04:27:52.462Z,95.37
2018-09-20T04:30:21.111Z,95.69
2018-09-20T04:32:49.752Z,95.56
2018-09-20T04:35:18.960Z,95.72
2018-09-20T04:37:47.548Z,95.27
2018-09-20T04:40:16.280Z,95.06
2018-09-20T04:42:44.881Z,95.32
2018-09-20T04:45:13.496Z,95.82
2018-09-20T04:47:42.106Z,95.85
2018-09-20T04:50:10.701Z,95.19
2018-09-20T04:52:39.331Z,95.48
2018-09-20T04:55:08.532Z,95.02
2018-09-20T04:57:37.316Z,94.79
2018-09-20T05:00:06.171Z,94.93
2018-09-20T05:02:34.975Z,94.63
2018-09-20T05:05:03.715Z,94.42
2018-09-20T05:07:32.483Z,94.30
2018-09-20T05:10:01.141Z,94.41
2018-09-20T05:12:29.855Z,94.11
2018-09-20T05:14:58.642Z,93.59
2018-09-20T05:17:27.299Z,93.85
2018-09-20T05:19:55.980Z,93.38
2018-09-20T05:22:24.698Z,93.18
2018-09-20T05:24:53.468Z,92.60
2018-09-20T05:27:22.243Z,92.25
2018-09-20T05:29:50.901Z,91.48
2018-09-20T05:32:19.635Z,91.19
2018-09-20T05:34:48.422Z,91.14
2018-09-20T05:37:17.033Z,90.26
2018-09-20T05:39:45.710Z,90.42
2018-09-20T05:42:14.406Z,89.64
2018-09-20T05:44:43.100Z,89.41
2018-09-20T05:47:11.751Z,89.08
2018-09-20T05:49:41.695Z,88.43
2018-09-20T05:52:10.364Z,87.91
2018-09-20T05:54:38.986Z,87.19
2018-09-20T05:57:07.599Z,86.82
2018-09-20T05:59:36.285Z,86.16
2018-09-20T06:02:04.902Z,85.04
2018-09-20T06:04:33.565Z,83.93
2018-09-20T06:07:02.287Z,83.84
2018-09-20T06:09:30.904Z,82.76
2018-09-20T06:11:59.499Z,82.35
2018-09-20T06:14:28.096Z,81.83
2018-09-20T06:16:56.799Z,81.38
2018-09-20T06:19:25.387Z,81.01
2018-09-20T06:21:54.205Z,79.50
2018-09-20T06:24:22.767Z,78.78
2018-09-20T06:26:51.379Z,78.87
2018-09-20T06:29:19.965Z,79.18
2018-09-20T06:31:48.546Z,78.13
2018-09-20T06:34:17.163Z,77.80
2018-09-20T06:36:45.794Z,77.39
2018-09-20T06:39:14.374Z,76.42
2018-09-20T06:41:48.035Z,76.14
2018-09-20T06:44:16.655Z,75.77
2018-09-20T06:46:45.251Z,75.30
2018-09-20T06:49:13.837Z,75.28
2018-09-20T06:51:42.492Z,74.74
2018-09-20T06:54:11.149Z,74.65
2018-09-20T06:56:39.829Z,73.75
2018-09-20T06:59:08.505Z,74.09
2018-09-20T07:01:37.240Z,72.89
2018-09-20T07:04:05.864Z,73.15
2018-09-20T07:06:34.507Z,72.50
2018-09-20T07:09:03.234Z,71.94
2018-09-20T07:11:31.850Z,71.14
2018-09-20T07:14:00.514Z,70.44
2018-09-20T07:16:29.159Z,70.53
2018-09-20T07:18:57.867Z,70.36
2018-09-20T07:21:26.689Z,68.90
2018-09-20T07:23:55.321Z,69.47
2018-09-20T07:26:24.574Z,69.36
2018-09-20T07:28:53.254Z,68.44
2018-09-20T07:31:21.894Z,68.65
2018-09-20T07:33:50.556Z,68.29
2018-09-20T07:36:19.242Z,67.85
2018-09-20T07:38:47.958Z,67.45
2018-09-20T07:41:16.596Z,66.87
2018-09-20T07:43:45.234Z,67.10
2018-09-20T07:46:13.914Z,66.40
2018-09-20T07:48:42.583Z,65.76
2018-09-20T07:51:11.222Z,65.72
2018-09-20T07:53:39.950Z,64.91
2018-09-20T07:56:08.619Z,65.31
2018-09-20T07:58:37.510Z,64.34
2018-09-20T08:01:06.174Z,63.78
2018-09-20T08:03:34.875Z,63.87
2018-09-20T08:06:03.514Z,62.75
2018-09-20T08:08:32.148Z,62.88
2018-09-20T08:11:06.286Z,63.14
2018-09-20T08:13:34.946Z,62.20
2018-09-20T08:16:10.039Z,62.63
2018-09-20T08:18:38.679Z,62.20
2018-09-20T08:21:07.830Z,62.09
2018-09-20T08:23:36.491Z,60.93
2018-09-20T08:26:05.111Z,60.91
2018-09-20T08:28:34.008Z,60.31
2018-09-20T08:31:02.676Z,61.45
2018-09-20T08:33:31.352Z,60.99
2018-09-20T08:36:00.011Z,60.34
2018-09-20T08:38:28.632Z,60.40
2018-09-20T08:40:57.280Z,60.11
2018-09-20T08:43:25.896Z,60.83
2018-09-20T08:45:54.555Z,60.59
2018-09-20T08:48:23.187Z,59.83
2018-09-20T08:50:51.837Z,59.54
2018-09-20T08:53:20.535Z,59.02
2018-09-20T08:55:49.201Z,58.74
2018-09-20T08:58:17.831Z,58.32
2018-09-20T09:00:46.518Z,58.93
2018-09-20T09:03:15.155Z,58.83
2018-09-20T09:05:43.851Z,58.89
2018-09-20T09:08:12.532Z,58.49
2018-09-20T09:10:41.178Z,57.95
2018-09-20T09:13:09.810Z,57.86
2018-09-20T09:15:38.446Z,57.75
2018-09-20T09:18:07.064Z,58.02
2018-09-20T09:20:35.707Z,57.25
2018-09-20T09:23:04.368Z,56.91
2018-09-20T09:25:33.009Z,57.48
2018-09-20T09:28:01.635Z,57.55
2018-09-20T09:30:30.300Z,56.81
2018-09-20T09:32:58.986Z,56.68
2018-09-20T09:35:27.614Z,56.59
2018-09-20T09:37:56.269Z,56.03
2018-09-20T09:40:24.924Z,55.64
2018-09-20T09:42:53.459Z,56.22
2018-09-20T09:45:22.064Z,56.37
2018-09-20T09:47:50.778Z,55.10
2018-09-20T09:50:19.437Z,55.61
2018-09-20T09:52:48.222Z,55.26
2018-09-20T09:55:16.870Z,55.31
2018-09-20T09:57:49.746Z,55.35
2018-09-20T10:00:22.625Z,54.28
2018-09-20T10:02:51.391Z,54.30
2018-09-20T10:05:20.078Z,55.00
2018-09-20T10:07:48.810Z,54.45
2018-09-20T10:10:17.581Z,53.96
2018-09-20T10:12:46.367Z,53.90
2018-09-20T10:15:15.059Z,53.52
2018-09-20T10:17:44.023Z,52.78
2018-09-20T10:20:12.718Z,52.78
2018-09-20T10:22:41.373Z,52.85
2018-09-20T10:25:10.089Z,52.78
2018-09-20T10:27:38.710Z,52.19
2018-09-20T10:30:07.684Z,52.09
2018-09-20T10:32:36.372Z,51.40
2018-09-20T10:35:05.839Z,50.85
2018-09-20T10:37:35.038Z,50.72
2018-09-20T10:40:03.956Z,51.16
2018-09-20T10:42:32.631Z,51.72
2018-09-20T10:45:01.307Z,51.33
2018-09-20T10:47:30.021Z,50.83
2018-09-20T10:49:58.797Z,51.19
2018-09-20T10:52:28.706Z,50.38
2018-09-20T10:54:57.492Z,49.24
2018-09-20T10:57:26.196Z,49.52
2018-09-20T10:59:54.985Z,49.05
2018-09-20T11:02:23.680Z,48.58
2018-09-20T11:04:52.403Z,47.65
2018-09-20T11:07:21.119Z,48.75
2018-09-20T11:09:49.827Z,48.39
2018-09-20T11:12:18.722Z,47.86
2018-09-20T11:14:47.426Z,47.24
2018-09-20T11:17:17.326Z,46.86
2018-09-20T11:19:46.029Z,46.59
2018-09-20T11:22:14.746Z,46.07
2018-09-20T11:24:43.477Z,46.32
2018-09-20T11:27:12.169Z,45.67
2018-09-20T11:29:40.842Z,45.88
2018-09-20T11:32:09.504Z,46.17
2018-09-20T11:34:38.324Z,45.39
2018-09-20T11:37:07.055Z,45.26
2018-09-20T11:39:35.791Z,44.74
2018-09-20T11:42:04.563Z,44.24
2018-09-20T11:44:33.293Z,44.38
2018-09-20T11:47:01.969Z,44.25
2018-09-20T11:49:30.619Z,43.29
2018-09-20T11:51:59.437Z,43.61
2018-09-20T11:54:28.121Z,43.19
2018-09-20T11:56:57.226Z,42.98
2018-09-20T11:59:25.975Z,41.74
2018-09-20T12:01:55.075Z,41.54
2018-09-20T12:04:23.678Z,41.09
2018-09-20T12:06:52.339Z,41.15
2018-09-20T12:09:20.967Z,40.77
2018-09-20T12:11:49.614Z,41.01
2018-09-20T12:14:18.293Z,40.79
2018-09-20T12:16:46.966Z,40.41
2018-09-20T12:19:15.592Z,39.81
2018-09-20T12:21:44.220Z,39.40
2018-09-20T12:24:12.843Z,39.15
2018-09-20T12:26:41.435Z,39.97
2018-09-20T12:29:10.040Z,39.44
2018-09-20T12:31:38.692Z,38.96
2018-09-20T12:34:07.373Z,39.06
2018-09-20T12:36:36.011Z,38.63
2018-09-20T12:39:07.303Z,38.92
2018-09-20T12:41:35.905Z,38.38
2018-09-20T12:44:04.635Z,37.13
2018-09-20T12:46:34.315Z,37.73
2018-09-20T12:49:03.324Z,36.83
2018-09-20T12:51:31.978Z,36.48
2018-09-20T12:54:00.687Z,36.29
2018-09-20T12:56:29.546Z,36.60
2018-09-20T12:58:58.236Z,36.14
2018-09-20T13:01:26.844Z,36.17
2018-09-20T13:03:55.567Z,36.27
2018-09-20T13:06:24.215Z,36.32
2018-09-20T13:08:52.830Z,36.13
2018-09-20T13:11:21.442Z,35.79
2018-09-20T13:13:50.050Z,34.67
2018-09-20T13:16:18.715Z,34.37
2018-09-20T13:18:48.334Z,34.73
2018-09-20T13:21:16.951Z,34.31
2018-09-20T13:23:45.594Z,33.54
2018-09-20T13:26:14.241Z,33.41
2018-09-20T13:28:42.882Z,32.84
2018-09-20T13:31:17.811Z,33.32
2018-09-20T13:33:46.478Z,32.61
2018-09-20T13:36:15.119Z,32.70
2018-09-20T13:38:43.784Z,32.93
2018-09-20T13:41:12.418Z,33.67
2018-09-20T13:43:41.054Z,33.60
2018-09-20T13:46:09.711Z,33.27
2018-09-20T13:48:39.033Z,33.08
2018-09-20T13:51:07.815Z,32.93
2018-09-20T13:53:36.398Z,32.84
2018-09-20T13:56:05.018Z,33.03
2018-09-20T13:58:33.652Z,33.57
2018-09-20T14:01:02.272Z,32.84
2018-09-20T14:03:30.919Z,31.46
2018-09-20T14:05:59.661Z,31.53
2018-09-20T14:08:28.313Z,31.32
2018-09-20T14:10:56.930Z,30.69
2018-09-20T14:13:25.579Z,29.54
2018-09-20T14:15:54.242Z,27.76
2018-09-20T14:18:22.857Z,28.35
2018-09-20T14:20:51.457Z,27.46
2018-09-20T14:23:20.077Z,26.90
2018-09-20T14:25:48.696Z,26.18
2018-09-20T14:28:17.344Z,27.04
2018-09-20T14:30:46.011Z,27.06
2018-09-20T14:33:14.791Z,26.78
2018-09-20T14:35:43.417Z,26.01
2018-09-20T14:38:12.199Z,25.57
2018-09-20T14:40:40.829Z,25.59
2018-09-20T14:43:09.492Z,25.96
2018-09-20T14:45:38.247Z,26.33
2018-09-20T14:48:07.017Z,26.09
2018-09-20T14:50:35.630Z,25.22
2018-09-20T14:53:04.349Z,25.34
2018-09-20T14:55:33.025Z,25.78
2018-09-20T14:58:01.658Z,25.82
2018-09-20T15:00:30.307Z,24.97
2018-09-20T15:02:58.954Z,24.83
2018-09-20T15:05:27.612Z,23.75
2018-09-20T15:07:56.325Z,24.74
2018-09-20T15:10:24.945Z,24.77
2018-09-20T15:12:53.544Z,24.21
2018-09-20T15:15:22.160Z,24.48
2018-09-20T15:17:50.760Z,24.66
2018-09-20T15:20:19.433Z,24.42
2018-09-20T15:22:48.117Z,24.35
2018-09-20T15:25:16.799Z,25.28
2018-09-20T15:27:45.550Z,25.70
2018-09-20T15:30:14.503Z,24.94
2018-09-20T15:32:43.282Z,25.62
2018-09-20T15:35:12.019Z,26.81
2018-09-20T15:37:40.727Z,26.65
2018-09-20T15:40:09.491Z,26.30
2018-09-20T15:42:38.222Z,26.72
2018-09-20T15:45:06.989Z,26.92
2018-09-20T15:47:35.997Z,27.36
2018-09-20T15:50:05.427Z,28.34
2018-09-20T15:52:34.098Z,28.05
2018-09-20T15:55:02.831Z,28.60
2018-09-20T15:57:31.491Z,28.94
2018-09-20T16:00:00.199Z,29.28
2018-09-20T16:02:28.911Z,29.69
2018-09-20T16:04:57.583Z,30.00
2018-09-20T16:07:26.291Z,30.70
2018-09-20T16:09:54.947Z,30.84
2018-09-20T16:12:23.811Z,31.67
2018-09-20T16:14:52.512Z,32.17
2018-09-20T16:17:21.115Z,32.99
2018-09-20T16:19:49.955Z,33.03
2018-09-20T16:22:18.824Z,33.70
2018-09-20T16:24:47.614Z,34.34
2018-09-20T16:27:16.364Z,34.93
2018-09-20T16:30:15.860Z,35.76
2018-09-20T16:32:50.663Z,37.06
2018-09-20T16:36:30.595Z,38.60
2018-09-20T16:39:05.192Z,41.00
2018-09-20T16:41:38.660Z,41.92
2018-09-20T16:44:08.112Z,43.76
2018-09-20T16:46:36.775Z,44.16
2018-09-20T16:49:05.559Z,45.42
2018-09-20T16:51:34.571Z,46.35
2018-09-20T16:54:03.468Z,46.97
2018-09-20T16:56:32.188Z,48.26
2018-09-20T16:59:00.778Z,49.10
2018-09-20T17:01:29.442Z,49.74
2018-09-20T17:03:58.157Z,50.04
2018-09-20T17:06:26.834Z,50.67
2018-09-20T17:08:55.464Z,51.63
2018-09-20T17:11:24.240Z,52.00
2018-09-20T17:13:52.917Z,52.53
2018-09-20T17:16:21.603Z,52.68
2018-09-20T17:18:50.263Z,53.21
2018-09-20T17:21:18.993Z,54.03
2018-09-20T17:23:47.643Z,54.35
2018-09-20T17:26:16.324Z,54.79
2018-09-20T17:28:45.004Z,55.42
2018-09-20T17:31:13.704Z,56.00
2018-09-20T17:33:42.361Z,56.11
2018-09-20T17:36:11.242Z,57.14
2018-09-20T17:38:40.814Z,57.14
2018-09-20T17:41:15.594Z,57.88
2018-09-20T17:43:52.807Z,57.48
2018-09-20T17:46:21.536Z,58.05
2018-09-20T17:48:50.129Z,58.20
2018-09-20T17:51:19.418Z,58.55
2018-09-20T17:53:49.167Z,58.98
2018-09-20T17:56:18.192Z,58.96
2018-09-20T17:58:47.375Z,59.42
2018-09-20T18:01:16.189Z,59.99
2018-09-20T18:03:44.846Z,60.26
2018-09-20T18:06:13.510Z,59.99
2018-09-20T18:08:42.208Z,61.30
2018-09-20T18:11:10.806Z,61.35
2018-09-20T18:13:39.493Z,61.37
2018-09-20T18:16:08.327Z,62.33
2018-09-20T18:18:37.069Z,62.49
2018-09-20T18:21:05.814Z,63.16
2018-09-20T18:23:34.600Z,63.50
2018-09-20T18:26:03.256Z,63.42
2018-09-20T18:28:31.980Z,63.41
2018-09-20T18:31:00.742Z,64.27
2018-09-20T18:33:29.657Z,64.62
2018-09-20T18:35:58.454Z,64.94
2018-09-20T18:38:27.187Z,65.39
2018-09-20T18:40:55.914Z,65.10
2018-09-20T18:43:24.621Z,65.41
2018-09-20T18:45:53.390Z,66.11
2018-09-20T18:48:22.181Z,65.79
2018-09-20T18:50:50.819Z,65.74
2018-09-20T18:53:20.611Z,65.60
2018-09-20T18:55:49.321Z,66.15
2018-09-20T18:58:18.010Z,65.95
2018-09-20T19:00:46.701Z,66.34
2018-09-20T19:03:15.487Z,66.04
2018-09-20T19:05:44.129Z,66.46
2018-09-20T19:08:12.826Z,66.11
2018-09-20T19:10:41.454Z,67.38
2018-09-20T19:13:10.149Z,66.94
2018-09-20T19:15:38.813Z,67.17
2018-09-20T19:18:07.486Z,67.83
2018-09-20T19:20:36.163Z,68.44
2018-09-20T19:23:04.839Z,68.12
2018-09-20T19:25:33.747Z,68.43
2018-09-20T19:28:02.402Z,68.86
2018-09-20T19:30:31.022Z,68.81
2018-09-20T19:32:59.731Z,69.49
2018-09-20T19:35:28.370Z,69.21
2018-09-20T19:37:57.045Z,69.43
2018-09-20T19:40:25.744Z,69.48
2018-09-20T19:42:54.420Z,69.02
2018-09-20T19:45:23.054Z,69.97
2018-09-20T19:48:20.895Z,69.12
2018-09-20T19:50:49.510Z,69.36
2018-09-20T19:53:18.209Z,69.65
2018-09-20T19:55:46.922Z,70.39
2018-09-20T19:58:15.590Z,69.92
2018-09-20T20:00:44.257Z,70.42
2018-09-20T20:03:12.963Z,70.55
2018-09-20T20:05:42.534Z,70.44
2018-09-20T20:08:11.419Z,70.15
2018-09-20T20:10:40.068Z,70.55
2018-09-20T20:13:08.735Z,70.18
2018-09-20T20:15:37.577Z,70.86
2018-09-20T20:18:05.980Z,70.86
2018-09-20T20:20:34.662Z,71.40
2018-09-20T20:23:03.343Z,71.60
2018-09-20T20:25:32.075Z,71.16
2018-09-20T20:28:00.758Z,71.74
2018-09-20T20:30:29.410Z,72.16
2018-09-20T20:32:58.079Z,72.53
2018-09-20T20:35:26.742Z,72.40
2018-09-20T20:37:55.391Z,72.56
2018-09-20T20:40:24.018Z,72.21
2018-09-20T20:42:52.667Z,72.88
2018-09-20T20:45:21.339Z,73.04
2018-09-20T20:47:50.426Z,72.88
2018-09-20T20:50:19.415Z,73.12
2018-09-20T20:52:48.169Z,72.80
2018-09-20T20:55:22.329Z,72.99
2018-09-20T20:57:50.932Z,72.91
2018-09-20T21:00:19.539Z,73.52
2018-09-20T21:02:48.185Z,73.31
2018-09-20T21:05:16.864Z,74.00
2018-09-20T21:07:45.495Z,73.79
2018-09-20T21:10:14.203Z,74.43
2018-09-20T21:12:42.934Z,74.85
2018-09-20T21:15:11.530Z,75.57
2018-09-20T21:17:40.238Z,76.05
2018-09-20T21:20:09.003Z,75.77
2018-09-20T21:22:37.690Z,77.05
2018-09-20T21:25:06.338Z,77.43
2018-09-20T21:27:35.021Z,77.22
2018-09-20T21:30:03.738Z,76.90
2018-09-20T21:32:32.355Z,77.26
2018-09-20T21:35:01.040Z,77.42
2018-09-20T21:37:29.646Z,77.99
2018-09-20T21:39:58.357Z,79.14
2018-09-20T21:42:26.978Z,79.21
2018-09-20T21:44:55.568Z,78.72
2018-09-20T21:47:24.371Z,79.00
2018-09-20T21:49:52.974Z,79.74
2018-09-20T21:52:21.856Z,79.76
2018-09-20T21:54:50.513Z,79.83
2018-09-20T21:57:19.163Z,79.51
2018-09-20T21:59:47.772Z,79.73
2018-09-20T22:02:20.867Z,79.75
2018-09-20T22:04:49.526Z,80.02
2018-09-20T22:07:18.107Z,80.39
2018-09-20T22:09:46.959Z,80.51
2018-09-20T22:12:15.583Z,80.95
2018-09-20T22:14:44.202Z,81.32
2018-09-20T22:17:12.827Z,81.09
2018-09-20T22:19:41.413Z,82.06
2018-09-20T22:22:10.033Z,82.85
2018-09-20T22:24:38.682Z,83.05
2018-09-20T22:27:07.326Z,82.89
2018-09-20T22:29:36.605Z,83.09
2018-09-20T22:32:05.242Z,83.54
2018-09-20T22:34:33.849Z,83.93
2018-09-20T22:37:02.455Z,83.62
2018-09-20T22:39:31.055Z,84.37
2018-09-20T22:41:59.733Z,84.67
2018-09-20T22:44:28.355Z,84.89
2018-09-20T22:46:57.006Z,84.91
2018-09-20T22:49:25.641Z,84.64
2018-09-20T22:51:54.255Z,85.37
2018-09-20T22:54:22.925Z,85.96
2018-09-20T22:56:51.565Z,85.80
2018-09-20T22:59:20.150Z,85.83
2018-09-20T23:01:49.037Z,86.84
2018-09-20T23:04:17.672Z,86.53
2018-09-20T23:06:46.309Z,87.23
2018-09-20T23:09:14.927Z,86.97
2018-09-20T23:11:43.654Z,87.08
2018-09-20T23:14:12.293Z,87.39
2018-09-20T23:16:40.945Z,87.62
2018-09-20T23:19:09.685Z,87.84
2018-09-20T23:21:38.295Z,88.30
2018-09-20T23:24:07.127Z,88.74
2018-09-20T23:26:35.742Z,88.90
2018-09-20T23:29:04.358Z,88.95
2018-09-20T23:31:33.047Z,89.08
2018-09-20T23:34:01.657Z,89.30
2018-09-20T23:36:30.312Z,89.27
2018-09-20T23:38:58.935Z,90.13
2018-09-20T23:41:27.534Z,90.39
2018-09-20T23:43:56.119Z,90.40
2018-09-20T23:46:24.728Z,90.59
2018-09-20T23:48:53.354Z,90.56
2018-09-20T23:51:22.150Z,90.92
2018-09-20T23:53:50.742Z,91.00
2018-09-20T23:56:24.726Z,90.55
